createdAt,value
2018-09-18T00:00:00.859Z,4.25
2018-09-18T00:05:04.223Z,4.28
2018-09-18T00:10:07.811Z,4.90
2018-09-18T00:15:11.131Z,4.67
2018-09-18T00:20:14.463Z,4.87
2018-09-18T00:25:17.761Z,4.15
2018-09-18T00:30:21.095Z,4.30
2018-09-18T00:35:24.387Z,4.50
2018-09-18T00:40:27.690Z,5.28
2018-09-18T00:45:31.007Z,4.60
2018-09-18T00:50:34.344Z,5.33
2018-09-18T00:55:37.626Z,5.10
2018-09-18T01:00:40.945Z,4.97
2018-09-18T01:05:44.238Z,4.70
2018-09-18T01:10:47.549Z,5.15
2018-09-18T01:15:50.883Z,4.53
2018-09-18T01:20:54.270Z,4.60
2018-09-18T01:25:57.555Z,4.47
2018-09-18T01:31:00.910Z,4.87
2018-09-18T01:36:04.413Z,4.95
2018-09-18T01:41:07.709Z,4.90
2018-09-18T01:46:11.060Z,4.90
2018-09-18T01:51:14.387Z,4.75
2018-09-18T01:56:17.771Z,4.87
2018-09-18T02:01:21.074Z,5.00
2018-09-18T02:06:24.405Z,4.85
2018-09-18T02:11:27.707Z,4.78
2018-09-18T02:16:31.018Z,5.10
2018-09-18T02:21:34.523Z,4.33
2018-09-18T02:26:37.867Z,5.00
2018-09-18T02:31:41.163Z,4.95
2018-09-18T02:36:44.530Z,5.12
2018-09-18T02:41:47.859Z,5.15
2018-09-18T02:46:51.235Z,5.22
2018-09-18T02:51:54.527Z,4.90
2018-09-18T02:56:57.831Z,4.87
2018-09-18T03:02:01.130Z,5.05
2018-09-18T03:07:04.426Z,4.83
2018-09-18T03:12:07.841Z,5.45
2018-09-18T03:17:11.160Z,5.85
2018-09-18T03:22:14.474Z,5.10
2018-09-18T03:27:17.842Z,4.97
2018-09-18T03:32:21.121Z,4.72
2018-09-18T03:37:24.429Z,5.10
2018-09-18T03:42:27.727Z,4.78
2018-09-18T03:47:31.090Z,4.70
2018-09-18T03:52:34.378Z,5.20
2018-09-18T03:57:37.710Z,5.60
2018-09-18T04:02:41.071Z,5.85
2018-09-18T04:07:44.359Z,5.27
2018-09-18T04:12:47.691Z,5.42
2018-09-18T04:17:51.036Z,5.72
2018-09-18T04:22:54.359Z,5.65
2018-09-18T04:27:57.671Z,5.80
2018-09-18T04:33:00.996Z,5.10
2018-09-18T04:38:04.382Z,5.67
2018-09-18T04:43:07.691Z,5.67
2018-09-18T04:48:10.996Z,5.17
2018-09-18T04:53:14.315Z,5.95
2018-09-18T04:58:17.612Z,5.92
2018-09-18T05:03:20.927Z,6.62
2018-09-18T05:08:24.215Z,5.60
2018-09-18T05:13:28.342Z,6.00
2018-09-18T05:18:31.651Z,5.37
2018-09-18T05:23:34.972Z,5.75
2018-09-18T05:28:38.290Z,6.00
2018-09-18T05:33:41.663Z,5.85
2018-09-18T05:38:44.969Z,5.83
2018-09-18T05:43:48.307Z,6.22
2018-09-18T05:48:51.671Z,7.65
2018-09-18T05:53:54.971Z,11.93
2018-09-18T05:58:58.278Z,11.35
2018-09-18T06:04:01.585Z,13.75
2018-09-18T06:09:07.826Z,6.40
2018-09-18T06:14:11.362Z,6.08
2018-09-18T06:19:14.766Z,5.85
2018-09-18T06:24:18.048Z,5.78
2018-09-18T06:29:21.334Z,5.75
2018-09-18T06:34:24.652Z,5.58
2018-09-18T06:39:27.967Z,5.75
2018-09-18T06:44:31.280Z,5.72
2018-09-18T06:49:34.585Z,5.62
2018-09-18T06:54:37.977Z,6.20
2018-09-18T06:59:41.261Z,6.03
2018-09-18T07:04:44.557Z,5.40
2018-09-18T07:09:47.957Z,5.67
2018-09-18T07:14:51.250Z,5.20
2018-09-18T07:19:54.564Z,5.75
2018-09-18T07:24:57.975Z,5.83
2018-09-18T07:30:01.286Z,6.65
2018-09-18T07:35:04.746Z,5.87
2018-09-18T07:40:08.142Z,6.33
2018-09-18T07:45:11.426Z,5.95
2018-09-18T07:50:14.780Z,6.42
2018-09-18T07:55:18.088Z,6.60
2018-09-18T08:00:21.428Z,6.50
2018-09-18T08:05:24.723Z,6.13
2018-09-18T08:10:28.044Z,6.87
2018-09-18T08:15:31.338Z,6.33
2018-09-18T08:20:34.662Z,7.28
2018-09-18T08:25:37.988Z,6.67
2018-09-18T08:30:41.332Z,6.33
2018-09-18T08:35:44.639Z,6.30
2018-09-18T08:40:47.974Z,5.47
2018-09-18T08:45:51.716Z,5.70
2018-09-18T08:50:55.052Z,6.03
2018-09-18T08:55:58.385Z,5.92
2018-09-18T09:01:01.715Z,5.85
2018-09-18T09:06:05.165Z,5.35
2018-09-18T09:11:08.442Z,4.90
2018-09-18T09:16:11.750Z,4.97
2018-09-18T09:21:15.155Z,5.15
2018-09-18T09:26:18.640Z,4.85
2018-09-18T09:31:21.930Z,4.90
2018-09-18T09:36:25.285Z,4.87
2018-09-18T09:41:28.623Z,4.62
2018-09-18T09:46:31.939Z,5.00
2018-09-18T09:51:35.295Z,4.37
2018-09-18T09:56:38.620Z,5.00
2018-09-18T10:01:48.131Z,5.10
2018-09-18T10:06:51.467Z,4.37
2018-09-18T10:11:54.792Z,4.42
2018-09-18T10:16:58.131Z,4.33
2018-09-18T10:22:01.466Z,4.78
2018-09-18T10:27:04.881Z,4.00
2018-09-18T10:32:08.134Z,3.47
2018-09-18T10:37:11.490Z,3.20
2018-09-18T10:42:14.872Z,3.02
2018-09-18T10:47:18.177Z,3.35
2018-09-18T10:52:21.538Z,3.30
2018-09-18T10:57:24.910Z,2.10
2018-09-18T11:02:28.238Z,2.85
2018-09-18T11:07:31.931Z,2.95
2018-09-18T11:12:35.421Z,3.20
2018-09-18T11:17:38.786Z,3.17
2018-09-18T11:22:42.108Z,2.72
2018-09-18T11:33:50.470Z,2.30
2018-09-18T11:38:53.939Z,2.27
2018-09-18T11:43:57.318Z,2.30
2018-09-18T11:49:00.614Z,1.95
2018-09-18T11:54:03.956Z,2.47
2018-09-18T11:59:07.291Z,1.95
2018-09-18T12:04:10.630Z,2.30
2018-09-18T12:09:14.035Z,2.30
2018-09-18T12:14:17.635Z,2.08
2018-09-18T12:19:20.961Z,2.20
2018-09-18T12:24:24.363Z,2.07
2018-09-18T12:29:27.710Z,1.98
2018-09-18T12:34:31.055Z,2.33
2018-09-18T12:39:34.768Z,1.70
2018-09-18T12:44:38.056Z,2.10
2018-09-18T12:49:41.487Z,2.25
2018-09-18T12:54:44.685Z,2.25
2018-09-18T12:59:48.045Z,2.40
2018-09-18T13:04:51.350Z,2.22
2018-09-18T13:09:54.684Z,2.10
2018-09-18T13:14:57.992Z,2.10
2018-09-18T13:20:01.343Z,2.30
2018-09-18T13:25:04.939Z,2.10
2018-09-18T13:30:08.675Z,2.00
2018-09-18T13:35:12.002Z,2.00
2018-09-18T13:40:15.354Z,2.10
2018-09-18T13:45:18.648Z,2.43
2018-09-18T13:50:22.077Z,2.25
2018-09-18T13:55:25.349Z,2.50
2018-09-18T14:00:28.675Z,2.55
2018-09-18T14:05:32.004Z,2.35
2018-09-18T14:10:35.386Z,2.20
2018-09-18T14:15:38.735Z,2.73
2018-09-18T14:27:02.756Z,2.60
2018-09-18T14:32:06.059Z,2.37
2018-09-18T14:37:09.443Z,2.70
2018-09-18T14:54:28.691Z,2.35
2018-09-18T14:59:32.012Z,2.17
2018-09-18T15:04:35.312Z,2.13
2018-09-18T15:09:38.743Z,2.30
2018-09-18T15:14:42.049Z,2.50
2018-09-18T15:19:45.403Z,2.42
2018-09-18T15:24:48.809Z,2.30
2018-09-18T15:29:52.122Z,2.20
2018-09-18T15:34:55.467Z,2.58
2018-09-18T15:39:58.902Z,2.30
2018-09-18T15:45:02.203Z,2.50
2018-09-18T15:50:05.899Z,2.42
2018-09-18T15:55:09.279Z,2.65
2018-09-18T16:00:12.663Z,2.62
2018-09-18T16:05:16.081Z,2.83
2018-09-18T16:10:19.429Z,2.70
2018-09-18T16:15:23.058Z,2.45
2018-09-18T16:20:26.358Z,2.50
2018-09-18T16:25:29.720Z,2.17
2018-09-18T16:30:33.020Z,2.58
2018-09-18T16:35:36.363Z,2.70
2018-09-18T16:40:39.776Z,2.37
2018-09-18T16:45:43.197Z,2.33
2018-09-18T16:50:46.554Z,2.80
2018-09-18T16:55:50.004Z,2.77
2018-09-18T17:00:53.304Z,3.02
2018-09-18T17:05:56.620Z,2.52
2018-09-18T17:10:59.982Z,2.90
2018-09-18T17:16:03.364Z,2.92
2018-09-18T17:21:06.791Z,2.60
2018-09-18T17:26:10.100Z,3.00
2018-09-18T17:31:13.548Z,3.22
2018-09-18T17:36:16.977Z,2.90
2018-09-18T17:41:20.372Z,10.55
2018-09-18T17:46:23.733Z,3.30
2018-09-18T17:51:27.158Z,2.87
2018-09-18T17:56:30.571Z,2.90
2018-09-18T18:01:33.941Z,2.85
2018-09-18T18:06:37.372Z,2.77
2018-09-18T18:11:41.115Z,3.02
2018-09-18T18:16:44.545Z,3.08
2018-09-18T18:21:47.927Z,2.83
2018-09-18T18:26:51.292Z,3.30
2018-09-18T18:31:54.864Z,6.28
2018-09-18T18:36:58.192Z,3.37
2018-09-18T18:42:01.516Z,3.67
2018-09-18T18:47:05.080Z,4.00
2018-09-18T18:52:08.435Z,3.85
2018-09-18T18:57:11.784Z,4.60
2018-09-18T19:02:15.108Z,4.70
2018-09-18T19:07:18.414Z,4.22
2018-09-18T19:12:43.149Z,4.00
2018-09-18T19:17:46.493Z,4.08
2018-09-18T19:22:49.803Z,4.60
2018-09-18T19:27:53.295Z,4.60
2018-09-18T19:32:56.748Z,4.50
2018-09-18T19:38:00.087Z,4.15
2018-09-18T19:43:03.500Z,4.42
2018-09-18T19:48:06.938Z,4.60
2018-09-18T19:53:10.256Z,4.60
2018-09-18T19:58:13.559Z,4.12
2018-09-18T20:03:16.937Z,4.67
2018-09-18T20:08:20.525Z,5.25
2018-09-18T20:13:23.900Z,4.67
2018-09-18T20:18:27.282Z,4.10
2018-09-18T20:23:30.588Z,4.40
2018-09-18T20:28:33.922Z,4.28
2018-09-18T20:33:37.334Z,4.00
2018-09-18T20:38:40.838Z,4.22
2018-09-18T20:43:44.183Z,4.17
2018-09-18T20:48:47.549Z,4.05
2018-09-18T20:53:50.862Z,4.10
2018-09-18T20:58:54.289Z,5.42
2018-09-18T21:03:57.606Z,4.17
2018-09-18T21:09:01.125Z,4.08
2018-09-18T21:14:04.426Z,4.37
2018-09-18T21:19:07.821Z,3.95
2018-09-18T21:24:11.164Z,4.08
2018-09-18T21:29:14.531Z,4.03
2018-09-18T21:34:17.879Z,4.05
2018-09-18T21:39:21.231Z,4.83
2018-09-18T21:44:24.613Z,4.67
2018-09-18T21:49:27.963Z,4.50
2018-09-18T21:54:31.292Z,4.50
2018-09-18T21:59:34.605Z,4.70
2018-09-18T22:04:37.971Z,4.15
2018-09-18T22:09:41.456Z,4.83
2018-09-18T22:14:44.858Z,4.20
2018-09-18T22:19:48.182Z,4.47
2018-09-18T22:24:51.514Z,4.28
2018-09-18T22:29:54.883Z,4.72
2018-09-18T22:34:58.242Z,4.60
2018-09-18T22:40:01.629Z,4.22
2018-09-18T22:45:05.105Z,4.87
2018-09-18T22:50:08.523Z,4.10
2018-09-18T22:55:11.958Z,5.25
2018-09-18T23:00:15.286Z,4.70
2018-09-18T23:05:18.654Z,4.60
2018-09-18T23:10:21.988Z,4.43
2018-09-18T23:15:25.329Z,4.97
2018-09-18T23:20:28.665Z,4.53
2018-09-18T23:25:32.068Z,4.53
2018-09-18T23:30:35.441Z,4.22
2018-09-18T23:35:38.759Z,4.45
2018-09-18T23:40:42.072Z,4.62
2018-09-18T23:45:45.375Z,5.00
2018-09-18T23:50:48.743Z,4.83
2018-09-18T23:55:52.175Z,4.50
